createdAt,value
2022-09-01T00:00:13.309Z,100647.05
2022-09-01T00:03:00.636Z,100641.39
2022-09-01T00:05:28.626Z,100640.06
2022-09-01T00:07:56.257Z,100640.59
2022-09-01T00:10:24.743Z,100641.06
2022-09-01T00:12:52.641Z,100633.99
2022-09-01T00:15:20.678Z,100636.99
2022-09-01T00:17:48.447Z,100634.52
2022-09-01T00:20:20.261Z,100637.64
2022-09-01T00:22:49.387Z,100634.65
2022-09-01T00:25:20.141Z,100634.39
2022-09-01T00:27:49.235Z,100633.15
2022-09-01T00:30:21.817Z,100631.10
2022-09-01T00:32:49.461Z,100630.83
2022-09-01T00:35:19.276Z,100634.94
2022-09-01T00:37:47.630Z,100636.41
2022-09-01T00:40:17.640Z,100637.83
2022-09-01T00:42:46.143Z,100643.90
2022-09-01T00:45:13.820Z,100639.10
2022-09-01T00:47:42.239Z,100633.30
2022-09-01T00:50:12.497Z,100633.63
2022-09-01T00:52:45.737Z,100631.15
2022-09-01T00:55:18.911Z,100636.00
2022-09-01T00:57:47.403Z,100629.92
2022-09-01T01:00:25.166Z,100628.89
2022-09-01T01:02:56.078Z,100627.81
2022-09-01T01:05:33.992Z,100628.36
2022-09-01T01:08:04.141Z,100626.55
2022-09-01T01:10:36.603Z,100626.98
2022-09-01T01:13:17.075Z,100621.75
2022-09-01T01:15:44.893Z,100626.35
2022-09-01T01:18:14.631Z,100629.09
2022-09-01T01:21:01.981Z,100627.77
2022-09-01T01:23:51.961Z,100627.96
2022-09-01T01:26:19.818Z,100622.83
2022-09-01T01:28:48.721Z,100618.38
2022-09-01T01:31:18.480Z,100618.48
2022-09-01T01:33:52.022Z,100618.91
2022-09-01T01:36:36.162Z,100619.59
2022-09-01T01:39:13.876Z,100619.17
2022-09-01T01:41:47.069Z,100617.30
2022-09-01T01:44:19.185Z,100620.08
2022-09-01T01:46:51.720Z,100621.59
2022-09-01T01:49:25.852Z,100620.68
2022-09-01T01:51:57.901Z,100620.41
2022-09-01T01:54:32.141Z,100619.29
2022-09-01T01:57:00.981Z,100618.39
2022-09-01T01:59:29.582Z,100620.34
2022-09-01T02:01:58.319Z,100620.77
2022-09-01T02:04:27.859Z,100620.30
2022-09-01T02:06:55.737Z,100616.07
2022-09-01T02:09:23.649Z,100615.92
2022-09-01T02:11:57.071Z,100617.97
2022-09-01T02:14:26.267Z,100615.76
2022-09-01T02:16:55.952Z,100613.53
2022-09-01T02:19:23.965Z,100606.56
2022-09-01T02:21:56.034Z,100603.02
2022-09-01T02:24:29.226Z,100603.33
2022-09-01T02:27:00.462Z,100600.52
2022-09-01T02:29:29.869Z,100598.48
2022-09-01T02:32:02.197Z,100596.64
2022-09-01T02:34:30.731Z,100599.48
2022-09-01T02:36:59.465Z,100601.73
2022-09-01T02:39:30.005Z,100595.65
2022-09-01T02:41:58.426Z,100595.30
2022-09-01T02:44:30.930Z,100600.64
2022-09-01T02:46:59.138Z,100601.80
2022-09-01T02:49:29.832Z,100595.70
2022-09-01T02:52:01.153Z,100602.35
2022-09-01T02:54:32.259Z,100601.79
2022-09-01T02:57:01.065Z,100601.86
2022-09-01T02:59:30.282Z,100601.06
2022-09-01T03:02:01.010Z,100600.09
2022-09-01T03:04:34.014Z,100599.35
2022-09-01T03:07:04.657Z,100596.20
2022-09-01T03:09:35.408Z,100596.70
2022-09-01T03:12:07.136Z,100593.35
2022-09-01T03:14:35.519Z,100595.33
2022-09-01T03:17:03.376Z,100590.86
2022-09-01T03:19:40.054Z,100594.91
2022-09-01T03:22:08.058Z,100595.40
2022-09-01T03:24:36.396Z,100596.56
2022-09-01T03:27:04.247Z,100592.38
2022-09-01T03:29:31.958Z,100593.16
2022-09-01T03:31:59.842Z,100592.70
2022-09-01T03:34:28.267Z,100600.48
2022-09-01T03:36:57.332Z,100602.65
2022-09-01T03:39:28.098Z,100607.46
2022-09-01T03:41:58.245Z,100604.25
2022-09-01T03:44:27.122Z,100605.73
2022-09-01T03:46:54.826Z,100605.84
2022-09-01T03:49:25.137Z,100603.80
2022-09-01T03:51:53.884Z,100603.05
2022-09-01T03:54:25.857Z,100603.75
2022-09-01T03:56:54.941Z,100601.52
2022-09-01T03:59:24.548Z,100602.38
2022-09-01T04:01:52.833Z,100604.25
2022-09-01T04:04:21.093Z,100600.89
2022-09-01T04:06:49.056Z,100599.71
2022-09-01T04:09:16.727Z,100596.73
2022-09-01T04:11:48.350Z,100601.23
2022-09-01T04:14:17.491Z,100600.72
2022-09-01T04:17:03.080Z,100597.27
2022-09-01T04:19:36.824Z,100601.44
2022-09-01T04:22:05.381Z,100600.17
2022-09-01T04:24:47.973Z,100599.17
2022-09-01T04:27:18.276Z,100599.21
2022-09-01T04:29:46.878Z,100593.69
2022-09-01T04:32:15.864Z,100594.46
2022-09-01T04:34:50.056Z,100591.80
2022-09-01T04:37:21.126Z,100592.23
2022-09-01T04:39:56.858Z,100594.59
2022-09-01T04:42:29.447Z,100592.37
2022-09-01T04:45:03.161Z,100592.48
2022-09-01T04:47:41.915Z,100594.36
2022-09-01T04:50:17.113Z,100591.16
2022-09-01T04:53:02.097Z,100591.52
2022-09-01T04:55:41.119Z,100586.67
2022-09-01T04:58:13.484Z,100586.29
2022-09-01T05:00:41.251Z,100588.40
2022-09-01T05:03:10.134Z,100587.68
2022-09-01T05:06:00.123Z,100582.14
2022-09-01T05:08:28.908Z,100585.59
2022-09-01T05:11:07.578Z,100586.95
2022-09-01T05:13:40.300Z,100586.98
2022-09-01T05:16:15.068Z,100581.23
2022-09-01T05:18:47.680Z,100579.87
2022-09-01T05:21:19.918Z,100577.40
2022-09-01T05:23:49.413Z,100579.79
2022-09-01T05:26:20.972Z,100583.63
2022-09-01T05:28:55.567Z,100585.71
2022-09-01T05:31:24.965Z,100585.30
2022-09-01T05:33:52.659Z,100589.48
2022-09-01T05:36:23.372Z,100586.67
2022-09-01T05:38:52.737Z,100584.17
2022-09-01T05:41:23.837Z,100579.36
2022-09-01T05:43:59.366Z,100573.79
2022-09-01T05:46:29.746Z,100571.83
2022-09-01T05:48:58.191Z,100571.25
2022-09-01T05:51:43.888Z,100571.92
2022-09-01T05:54:14.285Z,100574.33
2022-09-01T05:56:44.592Z,100573.77
2022-09-01T05:59:25.242Z,100574.77
2022-09-01T06:02:00.887Z,100573.63
2022-09-01T06:04:30.108Z,100575.39
2022-09-01T06:07:10.224Z,100578.05
2022-09-01T06:09:46.251Z,100575.32
2022-09-01T06:12:18.898Z,100585.88
2022-09-01T06:14:48.272Z,100594.77
2022-09-01T06:17:24.478Z,100595.83
2022-09-01T06:19:55.609Z,100597.40
2022-09-01T06:22:26.336Z,100596.69
2022-09-01T06:25:00.996Z,100596.33
2022-09-01T06:27:33.260Z,100604.06
2022-09-01T06:30:01.925Z,100600.34
2022-09-01T06:32:35.214Z,100601.91
2022-09-01T06:35:05.535Z,100604.02
2022-09-01T06:37:35.058Z,100601.48
2022-09-01T06:40:03.935Z,100602.54
2022-09-01T06:42:35.277Z,100600.02
2022-09-01T06:45:04.105Z,100604.58
2022-09-01T06:47:32.267Z,100606.86
2022-09-01T06:50:00.619Z,100611.27
2022-09-01T06:53:32.073Z,100619.78
2022-09-01T06:55:17.620Z,100628.20
2022-09-01T06:58:05.889Z,100632.80
2022-09-01T07:00:41.858Z,100634.65
2022-09-01T07:03:13.983Z,100629.25
2022-09-01T07:06:06.427Z,100626.88
2022-09-01T07:12:08.481Z,100619.89
2022-09-01T07:17:42.557Z,100621.96
2022-09-01T07:20:27.251Z,100624.05
2022-09-01T07:23:06.367Z,100627.93
2022-09-01T07:28:36.998Z,100637.00
2022-09-01T07:39:52.152Z,100641.43
2022-09-01T07:45:59.237Z,100636.28
2022-09-01T07:49:01.306Z,100633.89
2022-09-01T07:51:37.193Z,100634.04
2022-09-01T07:54:06.590Z,100634.89
2022-09-01T07:56:39.789Z,100634.86
2022-09-01T07:59:15.084Z,100636.60
2022-09-01T08:01:57.118Z,100636.63
2022-09-01T08:04:26.538Z,100638.23
2022-09-01T08:06:56.555Z,100643.09
2022-09-01T08:09:35.139Z,100640.78
2022-09-01T08:12:11.809Z,100647.80
2022-09-01T08:15:13.943Z,100651.30
2022-09-01T08:17:51.114Z,100649.98
2022-09-01T08:20:20.487Z,100650.20
2022-09-01T08:23:04.923Z,100651.45
2022-09-01T08:25:37.351Z,100653.39
2022-09-01T08:28:07.662Z,100653.45
2022-09-01T08:30:37.781Z,100650.52
2022-09-01T08:33:12.925Z,100649.39
2022-09-01T08:35:48.960Z,100648.98
2022-09-01T08:38:17.808Z,100648.18
2022-09-01T08:40:57.176Z,100649.04
2022-09-01T08:43:38.414Z,100652.05
2022-09-01T08:46:37.512Z,100645.63
2022-09-01T08:49:26.154Z,100638.38
2022-09-01T08:52:27.691Z,100638.93
2022-09-01T08:55:29.864Z,100636.21
2022-09-01T08:58:00.400Z,100632.95
2022-09-01T09:00:39.392Z,100632.55
2022-09-01T09:03:27.473Z,100634.27
2022-09-01T09:06:27.674Z,100636.83
2022-09-01T09:09:05.035Z,100635.64
2022-09-01T09:11:59.514Z,100631.38
2022-09-01T09:14:53.491Z,100632.08
2022-09-01T09:17:31.069Z,100630.56
2022-09-01T09:20:01.128Z,100629.43
2022-09-01T09:22:29.156Z,100633.02
2022-09-01T09:25:20.878Z,100629.80
2022-09-01T09:28:10.520Z,100628.76
2022-09-01T09:30:41.518Z,100629.74
2022-09-01T09:33:51.343Z,100633.48
2022-09-01T09:36:36.078Z,100646.89
2022-09-01T09:39:13.795Z,100645.88
2022-09-01T09:41:42.894Z,100644.99
2022-09-01T09:44:29.329Z,100644.19
2022-09-01T09:46:57.762Z,100639.73
2022-09-01T09:49:36.510Z,100641.63
2022-09-01T09:52:08.663Z,100639.06
2022-09-01T09:54:40.348Z,100637.09
2022-09-01T09:57:16.248Z,100628.75
2022-09-01T09:59:59.338Z,100627.48
2022-09-01T10:02:33.191Z,100628.96
2022-09-01T10:05:23.821Z,100620.27
2022-09-01T10:07:53.220Z,100624.05
2022-09-01T10:10:38.667Z,100626.57
2022-09-01T10:16:29.114Z,100627.40
2022-09-01T10:19:01.415Z,100623.20
2022-09-01T10:21:38.526Z,100630.77
2022-09-01T10:24:25.903Z,100633.08
2022-09-01T10:26:59.199Z,100634.71
2022-09-01T10:33:00.430Z,100637.42
2022-09-01T10:35:39.783Z,100629.48
2022-09-01T10:38:26.558Z,100629.36
2022-09-01T10:41:15.895Z,100626.21
2022-09-01T10:43:46.580Z,100626.61
2022-09-01T10:49:31.694Z,100624.14
2022-09-01T10:52:11.341Z,100614.79
2022-09-01T10:54:51.356Z,100619.05
2022-09-01T10:57:31.899Z,100618.05
2022-09-01T11:00:41.466Z,100626.67
2022-09-01T11:06:12.610Z,100634.21
2022-09-01T11:09:00.923Z,100646.61
2022-09-01T11:11:55.248Z,100649.55
2022-09-01T11:14:26.765Z,100659.73
2022-09-01T11:17:14.390Z,100664.20
2022-09-01T11:19:44.480Z,100655.43
2022-09-01T11:22:37.890Z,100654.20
2022-09-01T11:25:26.021Z,100650.48
2022-09-01T11:27:53.645Z,100652.10
2022-09-01T11:30:23.340Z,100649.83
2022-09-01T11:32:59.983Z,100648.13
2022-09-01T11:35:29.490Z,100650.61
2022-09-01T11:38:07.390Z,100646.42
2022-09-01T11:40:36.079Z,100653.86
2022-09-01T11:43:12.999Z,100660.52
2022-09-01T11:46:12.583Z,100661.60
2022-09-01T11:48:46.977Z,100659.75
2022-09-01T11:51:21.413Z,100655.31
2022-09-01T11:53:50.469Z,100657.70
2022-09-01T11:56:24.617Z,100655.33
2022-09-01T11:58:52.280Z,100651.28
2022-09-01T12:01:40.619Z,100650.14
2022-09-01T12:04:26.463Z,100644.40
2022-09-01T12:07:12.408Z,100643.09
2022-09-01T12:09:46.272Z,100638.70
2022-09-01T12:12:29.993Z,100635.90
2022-09-01T12:15:18.918Z,100631.32
2022-09-01T12:17:47.274Z,100630.48
2022-09-01T12:20:35.315Z,100629.42
2022-09-01T12:23:03.479Z,100633.45
2022-09-01T12:25:35.169Z,100629.34
2022-09-01T12:28:06.069Z,100629.98
2022-09-01T12:30:39.495Z,100626.50
2022-09-01T12:33:25.039Z,100622.40
2022-09-01T12:36:11.322Z,100621.58
2022-09-01T12:38:39.025Z,100623.87
2022-09-01T12:43:54.638Z,100624.58
2022-09-01T12:46:42.233Z,100622.35
2022-09-01T12:49:22.503Z,100616.98
2022-09-01T12:51:50.878Z,100616.64
2022-09-01T12:54:25.804Z,100618.84
2022-09-01T12:56:53.680Z,100622.05
2022-09-01T12:59:35.754Z,100616.91
2022-09-01T13:02:27.216Z,100619.39
2022-09-01T13:04:54.948Z,100617.66
2022-09-01T13:07:22.578Z,100614.89
2022-09-01T13:09:50.173Z,100617.74
2022-09-01T13:12:21.217Z,100618.20
2022-09-01T13:14:48.892Z,100617.61
2022-09-01T13:17:16.953Z,100613.35
2022-09-01T13:19:44.622Z,100611.67
2022-09-01T13:22:12.278Z,100608.52
2022-09-01T13:24:39.967Z,100608.96
2022-09-01T13:27:23.613Z,100605.50
2022-09-01T13:29:52.160Z,100604.56
2022-09-01T13:32:22.014Z,100602.09
2022-09-01T13:34:52.415Z,100603.86
2022-09-01T13:37:21.728Z,100606.02
2022-09-01T13:39:50.181Z,100600.51
2022-09-01T13:42:18.046Z,100598.60
2022-09-01T13:44:49.596Z,100600.11
2022-09-01T13:47:33.211Z,100601.12
2022-09-01T13:50:10.781Z,100599.50
2022-09-01T13:52:44.458Z,100594.49
2022-09-01T13:55:14.967Z,100592.25
2022-09-01T13:57:42.707Z,100596.83
2022-09-01T14:00:24.622Z,100593.10
2022-09-01T14:02:55.151Z,100590.30
2022-09-01T14:05:27.357Z,100593.33
2022-09-01T14:07:55.922Z,100590.21
2022-09-01T14:10:25.810Z,100598.92
2022-09-01T14:12:53.789Z,100603.57
2022-09-01T14:15:26.950Z,100596.86
2022-09-01T14:17:56.902Z,100599.92
2022-09-01T14:20:31.516Z,100599.19
2022-09-01T14:23:05.297Z,100601.68
2022-09-01T14:25:34.532Z,100599.08
2022-09-01T14:28:03.823Z,100593.98
2022-09-01T14:30:34.762Z,100589.63
2022-09-01T14:33:03.441Z,100587.30
2022-09-01T14:35:34.657Z,100586.23
2022-09-01T14:38:05.136Z,100587.27
2022-09-01T14:40:33.700Z,100585.73
2022-09-01T14:43:01.592Z,100585.02
2022-09-01T14:45:29.219Z,100589.90
2022-09-01T14:48:00.584Z,100594.47
2022-09-01T14:50:32.449Z,100590.15
2022-09-01T14:53:02.275Z,100592.94
2022-09-01T14:55:30.975Z,100595.20
2022-09-01T14:58:00.336Z,100593.77
2022-09-01T15:00:30.172Z,100590.45
2022-09-01T15:02:58.132Z,100593.65
2022-09-01T15:05:25.816Z,100593.39
2022-09-01T15:07:53.896Z,100597.95
2022-09-01T15:10:25.814Z,100601.23
2022-09-01T15:12:55.772Z,100597.11
2022-09-01T15:15:24.601Z,100592.73
2022-09-01T15:17:53.024Z,100595.19
2022-09-01T15:20:36.648Z,100597.06
2022-09-01T15:23:06.646Z,100593.50
2022-09-01T15:25:34.845Z,100595.59
2022-09-01T15:28:02.823Z,100597.02
2022-09-01T15:30:31.065Z,100593.20
2022-09-01T15:32:59.031Z,100594.85
2022-09-01T15:35:29.974Z,100593.77
2022-09-01T15:37:58.053Z,100589.40
2022-09-01T15:40:27.092Z,100588.73
2022-09-01T15:42:56.510Z,100591.42
2022-09-01T15:45:27.321Z,100594.58
2022-09-01T15:47:55.179Z,100593.66
2022-09-01T15:50:27.521Z,100593.67
2022-09-01T15:52:59.383Z,100591.90
2022-09-01T15:55:37.318Z,100594.35
2022-09-01T15:58:04.943Z,100596.96
2022-09-01T16:00:33.973Z,100596.21
2022-09-01T16:03:02.437Z,100595.25
2022-09-01T16:05:31.972Z,100591.95
2022-09-01T16:08:01.478Z,100590.32
2022-09-01T16:10:33.507Z,100589.23
2022-09-01T16:13:03.225Z,100585.48
2022-09-01T16:15:31.477Z,100584.67
2022-09-01T16:18:15.030Z,100589.43
2022-09-01T16:20:54.961Z,100591.82
2022-09-01T16:23:32.464Z,100594.81
2022-09-01T16:26:00.805Z,100591.80
2022-09-01T16:28:37.774Z,100595.91
2022-09-01T16:31:13.811Z,100594.08
2022-09-01T16:33:49.058Z,100596.07
2022-09-01T16:36:37.063Z,100591.27
2022-09-01T16:39:37.095Z,100591.15
2022-09-01T16:42:13.804Z,100592.13
2022-09-01T16:45:01.887Z,100590.83
2022-09-01T16:48:05.769Z,100594.02
2022-09-01T16:50:39.159Z,100594.20
2022-09-01T16:53:30.115Z,100594.44
2022-09-01T16:56:19.537Z,100595.70
2022-09-01T16:59:17.641Z,100598.83
2022-09-01T17:02:01.485Z,100599.35
2022-09-01T17:04:49.945Z,100602.39
2022-09-01T17:07:29.752Z,100602.09
2022-09-01T17:10:06.702Z,100604.02
2022-09-01T17:12:42.420Z,100606.59
2022-09-01T17:15:16.011Z,100603.84
2022-09-01T17:18:22.403Z,100608.16
2022-09-01T17:21:02.140Z,100610.55
2022-09-01T17:23:37.976Z,100618.84
2022-09-01T17:26:15.257Z,100617.04
2022-09-01T17:29:08.496Z,100619.94
2022-09-01T17:31:55.856Z,100623.42
2022-09-01T17:34:55.478Z,100623.41
2022-09-01T17:37:39.242Z,100632.23
2022-09-01T17:40:16.662Z,100634.33
2022-09-01T17:43:02.491Z,100634.91
2022-09-01T17:46:05.509Z,100637.96
2022-09-01T17:49:19.875Z,100639.41
2022-09-01T17:52:10.335Z,100647.11
2022-09-01T17:54:53.886Z,100651.05
2022-09-01T17:57:27.623Z,100650.25
2022-09-01T18:00:06.755Z,100653.83
2022-09-01T18:02:58.734Z,100652.98
2022-09-01T18:05:27.765Z,100652.27
2022-09-01T18:08:14.117Z,100658.25
2022-09-01T18:11:02.435Z,100657.38
2022-09-01T18:13:54.999Z,100659.69
2022-09-01T18:16:30.114Z,100662.84
2022-09-01T18:19:05.421Z,100666.95
2022-09-01T18:21:38.058Z,100670.40
2022-09-01T18:24:14.180Z,100670.14
2022-09-01T18:26:46.807Z,100671.13
2022-09-01T18:29:14.794Z,100666.49
2022-09-01T18:31:58.724Z,100668.66
2022-09-01T18:34:51.700Z,100670.20
2022-09-01T18:37:45.259Z,100672.70
2022-09-01T18:40:23.527Z,100673.69
2022-09-01T18:43:03.514Z,100673.96
2022-09-01T18:45:40.509Z,100674.17
2022-09-01T18:48:30.134Z,100674.19
2022-09-01T18:51:11.956Z,100675.10
2022-09-01T18:53:49.464Z,100679.77
2022-09-01T18:56:46.748Z,100682.71
2022-09-01T18:59:17.460Z,100685.36
2022-09-01T19:01:55.626Z,100689.17
2022-09-01T19:04:45.838Z,100692.95
2022-09-01T19:07:29.786Z,100694.13
2022-09-01T19:10:18.719Z,100695.14
2022-09-01T19:13:01.084Z,100696.00
2022-09-01T19:15:51.110Z,100695.55
2022-09-01T19:18:50.197Z,100696.77
2022-09-01T19:21:23.950Z,100697.01
2022-09-01T19:23:56.808Z,100705.16
2022-09-01T19:26:27.032Z,100705.95
2022-09-01T19:29:01.035Z,100706.61
2022-09-01T19:31:34.282Z,100708.23
2022-09-01T19:34:20.233Z,100709.72
2022-09-01T19:36:56.951Z,100712.83
2022-09-01T19:39:48.805Z,100710.77
2022-09-01T19:42:42.616Z,100710.44
2022-09-01T19:45:15.940Z,100712.27
2022-09-01T19:48:07.945Z,100712.05
2022-09-01T19:50:41.780Z,100710.85
2022-09-01T19:53:43.091Z,100713.37
2022-09-01T19:56:19.092Z,100713.80
2022-09-01T19:58:46.654Z,100718.98
2022-09-01T20:01:21.228Z,100718.44
2022-09-01T20:03:55.463Z,100717.53
2022-09-01T20:06:42.572Z,100717.77
2022-09-01T20:09:16.779Z,100719.90
2022-09-01T20:12:09.329Z,100718.80
2022-09-01T20:15:07.523Z,100721.08
2022-09-01T20:17:51.888Z,100723.91
2022-09-01T20:20:29.212Z,100725.05
2022-09-01T20:23:20.969Z,100730.48
2022-09-01T20:25:58.785Z,100727.78
2022-09-01T20:28:41.059Z,100731.73
2022-09-01T20:31:30.182Z,100730.55
2022-09-01T20:34:29.147Z,100736.80
2022-09-01T20:37:10.333Z,100739.64
2022-09-01T20:40:03.445Z,100741.59
2022-09-01T20:43:03.219Z,100742.89
2022-09-01T20:45:31.999Z,100744.69
2022-09-01T20:48:23.847Z,100746.09
2022-09-01T20:50:56.610Z,100745.54
2022-09-01T20:53:42.890Z,100745.73
2022-09-01T20:56:43.522Z,100745.36
2022-09-01T20:59:23.728Z,100743.54
2022-09-01T21:01:51.429Z,100748.64
2022-09-01T21:04:36.219Z,100750.42
2022-09-01T21:07:04.693Z,100749.09
2022-09-01T21:09:57.603Z,100746.77
2022-09-01T21:12:57.121Z,100749.52
2022-09-01T21:15:43.867Z,100750.02
2022-09-01T21:18:40.309Z,100751.92
2022-09-01T21:21:26.974Z,100751.94
2022-09-01T21:23:54.570Z,100750.50
2022-09-01T21:26:22.449Z,100752.58
2022-09-01T21:28:55.934Z,100753.48
2022-09-01T21:31:24.424Z,100755.13
2022-09-01T21:33:52.210Z,100758.27
2022-09-01T21:36:19.835Z,100757.59
2022-09-01T21:38:47.459Z,100755.68
2022-09-01T21:41:15.199Z,100754.13
2022-09-01T21:43:45.637Z,100751.25
2022-09-01T21:46:15.146Z,100755.59
2022-09-01T21:48:42.899Z,100757.92
2022-09-01T21:51:10.725Z,100757.77
2022-09-01T21:53:38.342Z,100758.09
2022-09-01T21:56:05.969Z,100757.44
2022-09-01T21:58:38.075Z,100756.27
2022-09-01T22:01:07.472Z,100757.52
2022-09-01T22:03:38.165Z,100756.91
2022-09-01T22:06:10.829Z,100758.13
2022-09-01T22:08:38.796Z,100754.98
2022-09-01T22:11:09.918Z,100754.24
2022-09-01T22:13:37.679Z,100752.83
2022-09-01T22:16:05.636Z,100756.41
2022-09-01T22:18:33.274Z,100755.63
2022-09-01T22:21:05.907Z,100754.75
2022-09-01T22:23:34.291Z,100751.22
2022-09-01T22:26:02.953Z,100746.63
2022-09-01T22:28:31.216Z,100749.72
2022-09-01T22:30:59.687Z,100752.89
2022-09-01T22:33:27.913Z,100751.59
2022-09-01T22:35:56.416Z,100753.09
2022-09-01T22:38:24.205Z,100755.36
2022-09-01T22:40:59.082Z,100755.49
2022-09-01T22:43:29.289Z,100751.77
2022-09-01T22:45:58.187Z,100752.52
2022-09-01T22:48:27.042Z,100752.55
2022-09-01T22:50:54.868Z,100753.90
2022-09-01T22:53:22.890Z,100754.61
2022-09-01T22:55:52.020Z,100752.42
2022-09-01T22:58:19.746Z,100751.16
2022-09-01T23:00:53.593Z,100753.75
2022-09-01T23:03:22.263Z,100755.61
2022-09-01T23:06:02.125Z,100753.63
2022-09-01T23:08:29.896Z,100747.10
2022-09-01T23:10:57.600Z,100756.86
2022-09-01T23:13:28.277Z,100750.04
2022-09-01T23:15:57.844Z,100748.61
2022-09-01T23:18:28.939Z,100744.70
2022-09-01T23:20:57.720Z,100746.64
2022-09-01T23:23:25.965Z,100747.52
2022-09-01T23:25:53.750Z,100748.79
2022-09-01T23:28:21.929Z,100749.67
2022-09-01T23:30:50.818Z,100750.27
2022-09-01T23:33:20.796Z,100743.54
2022-09-01T23:35:51.885Z,100747.20
2022-09-01T23:38:21.487Z,100750.83
2022-09-01T23:40:54.569Z,100752.15
2022-09-01T23:43:24.740Z,100751.50
2022-09-01T23:45:55.637Z,100755.98
2022-09-01T23:48:24.569Z,100758.02
2022-09-01T23:50:55.320Z,100755.26
2022-09-01T23:53:26.045Z,100754.38
2022-09-01T23:55:58.645Z,100753.73
2022-09-01T23:58:27.781Z,100753.64
